ADDS METAR Data INFO
IDs: Format: Raw Decoded Include TAF

Data at: 2008 UTC 18 Jul 2018

KMLE 181955Z AUTO 15008KT 10SM BKN032 BKN039 BKN045 28/22 A2998 RMK AO2 T02830215
KMLE 181935Z AUTO 10006KT 10SM SCT032 29/21 A2998 RMK AO2 T02870214
KMLE 181915Z AUTO 12010KT 10SM BKN032 28/21 A2999 RMK AO2 T02810208
KMLE 181855Z AUTO 13008KT 10SM BKN032 28/21 A2999 RMK AO2 T02830210
KMLE 181835Z AUTO 10007KT 10SM BKN032 BKN038 28/21 A3000 RMK AO2 T02840206
KMLE 181815Z AUTO 13009G15KT 10SM SCT032 29/21 A3000 RMK AO2 T02860212
KMLE 181755Z AUTO 13010G15KT 10SM SCT030 28/20 A3001 RMK AO2 T02830204 10284 20202
KMLE 181735Z AUTO 11008G15KT 10SM BKN030 28/21 A3001 RMK AO2 T02800207
KMLE 181715Z AUTO 15008KT 10SM SCT030 28/20 A3003 RMK AO2 T02800200
KMLE 181655Z AUTO 12007KT 10SM SCT030 28/21 A3003 RMK AO2 T02800208
KMLE 181635Z AUTO 15008KT 10SM CLR 28/21 A3003 RMK AO2 T02770207
KMLE 181615Z AUTO 15006KT 10SM CLR 27/20 A3004 RMK AO2 T02710203
KMLE 181555Z AUTO 14009KT 10SM CLR 26/20 A3003 RMK AO2 T02640199
KMLE 181535Z AUTO 13007KT 10SM SCT110 26/20 A3003 RMK AO2 T02610199
KMLE 181515Z AUTO 12006KT 10SM BKN110 26/20 A3003 RMK AO2 T02570198
KMLE 181455Z AUTO 13005KT 10SM OVC110 25/19 A3005 RMK AO2 T02480194
KMLE 181435Z AUTO 13005KT 10SM SCT041 OVC110 24/19 A3005 RMK AO2 T02410191
KMLE 181415Z AUTO 12003KT 10SM SCT041 SCT080 OVC100 24/19 A3006 RMK AO2 T02410191
KMLE 181355Z AUTO 13005KT 10SM BKN080 OVC100 24/19 A3006 RMK AO2 T02370192
KMLE 181335Z AUTO 00000KT 10SM OVC080 24/20 A3006 RMK AO2 T02350196
KMLE 181315Z AUTO 00000KT 10SM SCT070 BKN080 OVC100 23/20 A3006 RMK AO2 T02290196
KMLE 181255Z AUTO 00000KT 10SM BKN070 OVC090 23/19 A3007 RMK AO2 T02250194
KMLE 181235Z AUTO 00000KT 10SM SCT070 BKN100 22/20 A3007 RMK AO2 T02190197
KMLE 181215Z AUTO 00000KT 10SM SCT036 SCT050 BKN100 21/20 A3007 RMK AO2 T02070196
KMLE 181155Z AUTO 00000KT 10SM SCT036 SCT050 SCT060 20/19 A3007 RMK AO2 70028 T02020193 10203 20190
KMLE 181135Z AUTO 00000KT 10SM SCT050 BKN060 20/19 A3006 RMK AO2 T02030192
KMLE 181115Z AUTO 00000KT 10SM SCT060 20/19 A3005 RMK AO2 T01950188
KMLE 181055Z AUTO 00000KT 10SM CLR 19/19 A3005 RMK AO2 T01920187
KMLE 181035Z AUTO 00000KT 7SM CLR 20/19 A3005 RMK AO2 T01950188
KMLE 181015Z AUTO 00000KT 7SM CLR 20/19 A3006 RMK AO2 T01950189
KMLE 180955Z AUTO 00000KT 10SM CLR 20/19 A3006 RMK AO2 T01970188
KMLE 180935Z AUTO 00000KT 10SM CLR 20/18 A3006 RMK AO2 T01970184
KMLE 180915Z AUTO 00000KT 10SM SCT060 20/19 A3005 RMK AO2 T01960190
KMLE 180855Z AUTO 00000KT 10SM BKN060 20/19 A3006 RMK AO2 T01970190
KMLE 180835Z AUTO 00000KT 10SM SCT060 20/19 A3006 RMK AO2 T01960188
KMLE 180815Z AUTO 00000KT 10SM SCT060 20/19 A3007 RMK AO2 T01960188
KMLE 180755Z AUTO 00000KT 10SM CLR 20/19 A3007 RMK AO2 T01950190
KMLE 180735Z AUTO 00000KT 10SM CLR 20/19 A3007 RMK AO2 T01970191
KMLE 180715Z AUTO 00000KT 10SM CLR 20/19 A3008 RMK AO2 T01980191
KMLE 180655Z AUTO 00000KT 10SM CLR 20/19 A3008 RMK AO2 T01990191
KMLE 180635Z AUTO 00000KT 10SM CLR 20/19 A3008 RMK AO2 T02000192
KMLE 180615Z AUTO 00000KT 10SM CLR 20/19 A3009 RMK AO2 T02020192
KMLE 180555Z AUTO 00000KT 10SM CLR 20/19 A3010 RMK AO2 T02030192 10261 20203 402650203
KMLE 180535Z AUTO 00000KT 10SM CLR 21/19 A3010 RMK AO2 T02050192
KMLE 180515Z AUTO 00000KT 10SM CLR 21/19 A3009 RMK AO2 T02070191
KMLE 180455Z AUTO 00000KT 10SM CLR 21/19 A3009 RMK AO2 T02100190
KMLE 180435Z AUTO 00000KT 10SM CLR 21/19 A3008 RMK AO2 T02090187
KMLE 180415Z AUTO 00000KT 10SM CLR 21/19 A3008 RMK AO2 T02100190
KMLE 180355Z AUTO 00000KT 10SM CLR 22/19 A3008 RMK AO2 T02180187
KMLE 180335Z AUTO 00000KT 10SM CLR 21/19 A3008 RMK AO2 T02100190
KMLE 180315Z AUTO 00000KT 10SM CLR 22/19 A3008 RMK AO2 T02150190
KMLE 180255Z AUTO 00000KT 10SM CLR 22/19 A3008 RMK AO2 T02200188
KMLE 180235Z AUTO 00000KT 10SM CLR 23/18 A3006 RMK AO2 T02310183
KMLE 180215Z AUTO 11003KT 10SM CLR 24/18 A3006 RMK AO2 T02350184
KMLE 180155Z AUTO 12003KT 10SM CLR 24/18 A3007 RMK AO2 T02400184
KMLE 180135Z AUTO 11003KT 10SM CLR 25/18 A3007 RMK AO2 T02450183
KMLE 180115Z AUTO 11003KT 10SM CLR 25/20 A3007 RMK AO2 T02480201
KMLE 180055Z AUTO 12005KT 10SM CLR 25/20 A3006 RMK AO2 T02510196
KMLE 180035Z AUTO 11005KT 10SM CLR 26/19 A3006 RMK AO2 T02570194
KMLE 180015Z AUTO 11006KT 10SM CLR 26/20 A3006 RMK AO2 T02600201
KMLE 172355Z AUTO 12005KT 10SM SCT022 26/21 A3006 RMK AO2 60001 T02570210 10265 20211
KMLE 172335Z AUTO 12007KT 10SM SCT024 26/22 A3007 RMK AO2 T02620215
KMLE 172315Z AUTO 12006KT 10SM SCT022 26/21 A3008 RMK AO2 T02620209
KMLE 172255Z AUTO 12005KT 10SM SCT022 26/21 A3008 RMK AO2 T02630211
KMLE 172235Z AUTO 10004KT 10SM CLR 26/21 A3008 RMK AO2 T02610210
KMLE 172215Z AUTO 11006KT 10SM CLR 26/21 A3008 RMK AO2 T02600207
KMLE 172155Z AUTO 00000KT 10SM CLR 26/21 A3009 RMK AO2 T02550209
KMLE 172135Z AUTO 05004KT 10SM CLR 25/21 A3008 RMK AO2 T02530212
KMLE 172115Z AUTO 08004KT 10SM BKN013 25/21 A3009 RMK AO2 T02470211
KMLE 172055Z AUTO 00000KT 10SM OVC011 24/21 A3010 RMK AO2 60001 T02420210
KMLE 172035Z AUTO 08004KT 10SM BKN011 BKN037 OVC100 24/21 A3010 RMK AO2 T02410210
KMLE 172015Z AUTO 12005KT 10SM SCT037 SCT044 OVC090 24/21 A3011 RMK AO2 T02360213
KMLE 171955Z AUTO 14007KT 10SM OVC090 23/21 A3011 RMK AO2 T02340209
KMLE 171935Z AUTO 15009KT 10SM OVC090 23/21 A3010 RMK AO2 T02260206
KMLE 171915Z AUTO 14010KT 10SM BKN090 BKN120 23/21 A3010 RMK AO2 LTG DSNT SE T02250205
KMLE 171855Z AUTO 15008KT 10SM -RA BKN080 BKN110 22/20 A3010 RMK AO2 P0001 T02210203
KMLE 171835Z AUTO 15008KT 10SM -DZ SCT006 SCT013 BKN080 22/20 A3012 RMK AO2 LTG DSNT SE P0001 T02150204
KMLE 171815Z AUTO 13006KT 10SM -RA OVC006 21/20 A3013 RMK AO2 P0001 T02120202
KMLE 171755Z AUTO 14004KT 10SM -RA OVC006 21/20 A3015 RMK AO2 P0003 60027 T02100200 10235 20205
KMLE 171735Z AUTO 11004KT 10SM -RA SCT006 BKN041 OVC080 21/20 A3014 RMK AO2 LTG DSNT E AND SE P0002 T02100200
KMLE 171715Z AUTO 00000KT 7SM RA SCT055 BKN075 OVC090 21/20 A3013 RMK AO2 LTG DSNT SW P0002 T02070197
KMLE 171655Z AUTO 03004KT 10SM RA SCT027 SCT080 OVC090 21/20 A3014 RMK AO2 P0013 T02070197
KMLE 171635Z AUTO 36003KT 5SM RA SCT024 SCT060 OVC090 21/20 A3014 RMK AO2 LTG DSNT E P0011 T02060196
KMLE 171615Z AUTO 03003KT 4SM VCTSRA SCT008 BKN065 OVC075 21/20 A3014 RMK AO2 LTG DSNT E P0006 T02050196
KMLE 171555Z AUTO 02005KT 5SM RA SCT008 BKN024 OVC029 21/20 A3015 RMK AO2 LTG DSNT ALQS P0009 T02110200
KMLE 171535Z AUTO 32008G14KT 10SM -TSRA BKN027 OVC035 22/20 A3013 RMK AO2 LTG DSNT N S AND SW P0002 T02190198
KMLE 171515Z AUTO 30011G16KT 10SM -RA BKN035 OVC050 23/19 A3012 RMK AO2 LTG DSNT ALQS T02260192
KMLE 171455Z AUTO 13004KT 10SM BKN050 BKN080 23/19 A3009 RMK AO2 LTG DSNT N T02310185
KMLE 171435Z AUTO 09003KT 10SM -DZ SCT044 SCT050 SCT060 23/19 A3008 RMK AO2 LTG DSNT NE SW AND W T02310186
KMLE 171415Z AUTO 12006KT 10SM -RA SCT046 BKN050 OVC070 23/19 A3007 RMK AO2 LTG DSNT SW AND W T02290187
KMLE 171355Z AUTO 13006KT 10SM -RA SCT055 SCT065 SCT080 24/18 A3007 RMK AO2 T02350184
KMLE 171335Z AUTO 10003KT 10SM SCT050 24/18 A3007 RMK AO2 LTG DSNT W T02350183
KMLE 171315Z AUTO 10003KT 10SM BKN050 BKN065 BKN090 23/18 A3007 RMK AO2 LTG DSNT E T02320184
KMLE 171255Z AUTO 14004KT 10SM BKN050 BKN065 BKN090 23/18 A3008 RMK AO2 T02310183
KMLE 171235Z AUTO 12004KT 10SM OVC050 23/18 A3009 RMK AO2 T02310182
KMLE 171215Z AUTO 00000KT 10SM BKN050 OVC070 24/18 A3009 RMK AO2 T02350178
KMLE 171155Z AUTO 00000KT 10SM SCT050 SCT070 23/18 A3007 RMK AO2 T02340176 10255 20230
KMLE 171130Z AUTO 00000KT 10SM SCT050 24/17 A3006 RMK AO2 T02360173
KMLE 171115Z AUTO 00000KT 10SM CLR 24/17 A3005 RMK AO2 T02360172
KMLE 171055Z AUTO 13004KT 10SM CLR 24/17 A3006 RMK AO2 T02350174
KMLE 171035Z AUTO 13004KT 10SM SCT065 23/18 A3006 RMK AO2 T02340177
KMLE 171015Z AUTO 00000KT 10SM SCT065 24/18 A3006 RMK AO2 T02360175
KMLE 170955Z AUTO 14003KT 10SM SCT065 SCT075 24/18 A3007 RMK AO2 T02350176
KMLE 170935Z AUTO 00000KT 10SM SCT065 SCT075 24/18 A3006 RMK AO2 T02360175
KMLE 170915Z AUTO 00000KT 10SM BKN065 24/18 A3007 RMK AO2 T02360176
KMLE 170855Z AUTO 00000KT 10SM CLR 24/17 A3007 RMK AO2 T02410171
KMLE 170835Z AUTO 00000KT 10SM CLR 24/17 A3007 RMK AO2 T02410172
KMLE 170815Z AUTO 00000KT 10SM CLR 24/17 A3007 RMK AO2 T02420172